Time;durP1;ratioP1;P1;durP2;ratioP2;P2;SDS_P1;SDS_P2;PMS_P1;PMS_P2;Temp;Humidity;BMP_temperature;BMP_pressure;BME280_temperature;BME280_humidity;BME280_pressure;Samples;Min_cycle;Max_cycle;Signal;HPM_P1;HPM_P2
2023/06/24 00:01:34;;;;;;;6.77;6.17;;;17.90;99.90;;;;;;5077442;28;20486;-41
2023/06/24 00:04:00;;;;;;;6.13;5.63;;;18.00;99.90;;;;;;5095034;28;20638;-42
2023/06/24 00:06:26;;;;;;;7.47;6.77;;;17.90;99.90;;;;;;5094993;28;20172;-40
2023/06/24 00:08:52;;;;;;;6.83;6.23;;;17.90;99.90;;;;;;5095695;28;20184;-43
2023/06/24 00:11:18;;;;;;;7.93;7.13;;;17.90;99.90;;;;;;5095567;28;20496;-41
2023/06/24 00:13:44;;;;;;;7.37;6.73;;;17.90;99.90;;;;;;5094225;28;20458;-44
2023/06/24 00:16:10;;;;;;;6.50;5.90;;;17.90;99.90;;;;;;5077481;28;20462;-40
2023/06/24 00:18:37;;;;;;;7.03;6.43;;;17.70;99.90;;;;;;5094973;28;20496;-40
2023/06/24 00:21:03;;;;;;;7.47;6.83;;;17.60;99.90;;;;;;5094416;28;20485;-41
2023/06/24 00:23:38;;;;;;;8.13;7.33;;;17.60;99.90;;;;;;5095494;28;20430;-41
2023/06/24 00:26:04;;;;;;;7.70;7.00;;;17.60;99.90;;;;;;5095587;28;20406;-42
2023/06/24 00:28:30;;;;;;;7.50;6.80;;;17.60;1.00;;;;;;5095418;28;20896;-41
2023/06/24 00:30:55;;;;;;;7.20;6.50;;;17.60;1.00;;;;;;5096115;28;20422;-42
2023/06/24 00:33:21;;;;;;;7.43;6.63;;;17.60;1.00;;;;;;5095595;28;20192;-41
2023/06/24 00:35:47;;;;;;;6.57;5.97;;;17.60;1.00;;;;;;5096078;28;20279;-43
2023/06/24 00:38:12;;;;;;;7.33;6.70;;;17.60;1.00;;;;;;5094824;28;20473;-41
2023/06/24 00:40:39;;;;;;;7.07;6.40;;;17.60;1.00;;;;;;5095442;28;20208;-44
2023/06/24 00:43:05;;;;;;;6.93;6.33;;;17.60;1.00;;;;;;5094751;28;20503;-41
2023/06/24 00:45:31;;;;;;;8.17;7.37;;;17.60;1.00;;;;;;5094145;28;20422;-40
2023/06/24 00:48:01;;;;;;;6.23;5.67;;;17.60;1.00;;;;;;5075493;28;20441;-41
2023/06/24 00:50:26;;;;;;;7.20;6.23;;;17.60;1.00;;;;;;5094096;28;20183;-42
2023/06/24 00:52:52;;;;;;;7.50;6.73;;;17.50;1.00;;;;;;5094068;28;20410;-42
2023/06/24 00:55:20;;;;;;;7.10;6.40;;;17.50;1.00;;;;;;5093803;28;20570;-41
2023/06/24 00:57:51;;;;;;;7.50;6.80;;;17.50;1.00;;;;;;5075861;28;20621;-43
2023/06/24 01:00:18;;;;;;;6.47;5.97;;;17.40;1.00;;;;;;5075960;28;20665;-42
2023/06/24 01:02:44;;;;;;;6.40;5.80;;;17.40;1.00;;;;;;5092704;28;20459;-43
2023/06/24 01:05:11;;;;;;;5.83;5.33;;;17.40;1.00;;;;;;5092947;28;20422;-40
2023/06/24 01:07:38;;;;;;;6.00;5.50;;;17.40;1.00;;;;;;5093038;28;20434;-41
2023/06/24 01:10:08;;;;;;;8.10;6.30;;;17.40;1.00;;;;;;5093574;28;20804;-40
2023/06/24 01:12:34;;;;;;;7.77;6.97;;;17.40;1.00;;;;;;5076053;28;20441;-41
2023/06/24 01:15:00;;;;;;;6.07;5.53;;;17.40;1.00;;;;;;5093409;28;20442;-43
2023/06/24 01:17:44;;;;;;;5.80;5.23;;;17.40;1.00;;;;;;5093882;28;20452;-40
2023/06/24 01:20:41;;;;;;;6.83;6.13;;;17.40;1.00;;;;;;5094249;28;20407;-43
2023/06/24 01:23:10;;;;;;;5.93;5.30;;;17.30;1.00;;;;;;5059242;28;20525;-43
2023/06/24 01:26:07;;;;;;;8.43;6.07;;;17.30;1.00;;;;;;5099132;28;20559;-43
2023/06/24 01:28:48;;;;;;;6.10;5.40;;;17.20;1.00;;;;;;5098949;28;20414;-40
2023/06/24 01:31:50;;;;;;;6.40;5.80;;;17.20;1.00;;;;;;5097840;28;20494;-45
2023/06/24 01:34:36;;;;;;;7.43;6.10;;;17.20;50.60;;;;;;5082095;28;20449;-42
2023/06/24 01:37:21;;;;;;;8.07;6.30;;;17.20;82.80;;;;;;5079116;28;20846;-43
2023/06/24 01:40:12;;;;;;;7.40;5.43;;;17.10;21.70;;;;;;5078627;28;20540;-40
2023/06/24 01:42:40;;;;;;;7.23;6.60;;;17.10;99.90;;;;;;5082173;28;20476;-41
2023/06/24 01:45:18;;;;;;;6.57;5.97;;;17.10;99.90;;;;;;5096734;28;20441;-43
2023/06/24 01:47:47;;;;;;;7.00;6.30;;;17.10;99.90;;;;;;5080081;28;20559;-43
2023/06/24 01:50:13;;;;;;;6.97;6.37;;;17.10;99.90;;;;;;5098374;28;20438;-41
2023/06/24 01:52:42;;;;;;;6.30;5.70;;;16.90;99.90;;;;;;5080604;28;20769;-40
2023/06/24 01:55:10;;;;;;;6.63;6.03;;;16.80;99.90;;;;;;5098504;28;20539;-41
2023/06/24 01:57:37;;;;;;;5.97;5.47;;;16.80;99.90;;;;;;5081230;28;20529;-43
2023/06/24 02:00:06;;;;;;;7.17;6.50;;;16.80;1.00;;;;;;5098391;28;20495;-40
2023/06/24 02:02:32;;;;;;;5.83;4.97;;;16.80;1.00;;;;;;5080054;28;20458;-44
2023/06/24 02:04:58;;;;;;;6.83;6.17;;;16.80;1.00;;;;;;5080459;28;20402;-41
2023/06/24 02:07:25;;;;;;;6.50;5.90;;;16.80;1.00;;;;;;5080684;28;20486;-41
2023/06/24 02:09:51;;;;;;;6.37;5.87;;;16.80;1.00;;;;;;5079457;28;20434;-42
2023/06/24 02:12:17;;;;;;;6.80;6.20;;;16.80;1.00;;;;;;5080262;28;20419;-40
2023/06/24 02:14:43;;;;;;;6.50;5.90;;;16.80;1.00;;;;;;5079733;28;20449;-41
2023/06/24 02:17:10;;;;;;;6.67;5.97;;;16.80;1.00;;;;;;5098301;28;20407;-44
2023/06/24 02:19:36;;;;;;;6.63;5.97;;;16.70;1.00;;;;;;5080552;28;20667;-40
2023/06/24 02:22:04;;;;;;;6.57;5.97;;;16.70;1.00;;;;;;5079566;28;20942;-40
2023/06/24 02:24:30;;;;;;;6.80;6.20;;;16.70;1.00;;;;;;5097910;28;20808;-42
2023/06/24 02:26:59;;;;;;;6.20;5.70;;;16.70;1.00;;;;;;5098024;28;20426;-42
2023/06/24 02:29:28;;;;;;;6.50;5.90;;;16.70;1.00;;;;;;5079037;28;20427;-43
2023/06/24 02:31:54;;;;;;;6.33;5.83;;;16.60;1.00;;;;;;5079046;28;20479;-43
2023/06/24 02:34:20;;;;;;;7.20;6.33;;;16.60;1.00;;;;;;5096583;28;20422;-42
2023/06/24 02:36:45;;;;;;;7.30;6.57;;;16.60;1.00;;;;;;5097214;28;20674;-45
2023/06/24 02:39:11;;;;;;;7.17;6.57;;;16.40;99.90;;;;;;5097919;28;20184;-41
2023/06/24 02:41:37;;;;;;;7.60;6.53;;;16.40;99.90;;;;;;5079318;28;20243;-42
2023/06/24 02:44:02;;;;;;;6.90;6.30;;;16.40;99.90;;;;;;5097507;28;20183;-43
2023/06/24 02:46:29;;;;;;;8.00;6.07;;;16.40;99.90;;;;;;5097137;28;20160;-41
2023/06/24 02:48:56;;;;;;;7.90;7.20;;;16.50;99.90;;;;;;5097739;28;20188;-43
2023/06/24 02:51:22;;;;;;;6.57;5.97;;;16.40;99.90;;;;;;5061619;28;20449;-47
2023/06/24 02:53:49;;;;;;;7.10;6.40;;;16.50;99.90;;;;;;5079416;28;20418;-42
2023/06/24 02:56:20;;;;;;;7.07;6.47;;;16.50;99.90;;;;;;5097661;28;20577;-41
2023/06/24 02:58:46;;;;;;;8.30;7.57;;;16.40;99.90;;;;;;5079583;28;20576;-40
2023/06/24 03:01:12;;;;;;;6.00;5.50;;;16.40;99.90;;;;;;5097035;28;20569;-43
2023/06/24 03:03:39;;;;;;;7.00;6.37;;;16.40;99.90;;;;;;5078729;28;20421;-40
2023/06/24 03:06:05;;;;;;;8.13;7.33;;;16.40;99.90;;;;;;5078525;28;20313;-43
2023/06/24 03:08:31;;;;;;;7.63;6.93;;;16.40;1.00;;;;;;5096495;28;20419;-44
2023/06/24 03:10:57;;;;;;;7.37;6.67;;;16.40;99.90;;;;;;5095154;28;20180;-43
2023/06/24 03:13:23;;;;;;;6.50;5.90;;;16.50;99.90;;;;;;5096690;28;20642;-44
2023/06/24 03:15:48;;;;;;;6.83;6.13;;;16.50;99.90;;;;;;5096066;28;20437;-43
2023/06/24 03:18:15;;;;;;;6.70;6.10;;;16.50;99.90;;;;;;5094502;28;20191;-42
2023/06/24 03:20:41;;;;;;;7.00;6.40;;;16.50;99.90;;;;;;5096166;28;20225;-40
2023/06/24 03:23:07;;;;;;;7.20;6.50;;;16.50;99.90;;;;;;5095803;28;20497;-41
2023/06/24 03:25:33;;;;;;;6.80;6.20;;;16.50;99.90;;;;;;5096713;28;20181;-41
2023/06/24 03:28:00;;;;;;;7.20;6.50;;;16.60;1.00;;;;;;5078681;28;20176;-43
2023/06/24 03:30:26;;;;;;;6.87;6.27;;;16.50;99.90;;;;;;5078102;28;20426;-40
2023/06/24 03:32:52;;;;;;;6.87;6.27;;;16.40;99.90;;;;;;5076483;28;20426;-41
2023/06/24 03:35:18;;;;;;;7.80;6.70;;;16.40;1.00;;;;;;5095926;28;20847;-42
2023/06/24 03:37:44;;;;;;;7.10;6.43;;;16.30;1.00;;;;;;5095124;28;20297;-41
2023/06/24 03:40:10;;;;;;;8.63;7.20;;;16.30;1.00;;;;;;5094257;28;20562;-38
2023/06/24 03:42:35;;;;;;;7.97;6.83;;;16.40;1.00;;;;;;5095329;28;20192;-41
2023/06/24 03:45:03;;;;;;;7.40;6.70;;;16.40;1.00;;;;;;5094088;28;20423;-42
2023/06/24 03:47:29;;;;;;;7.63;6.93;;;16.40;1.00;;;;;;5093138;28;20180;-42
2023/06/24 03:49:54;;;;;;;6.40;5.80;;;16.50;1.00;;;;;;5093926;28;20684;-41
2023/06/24 03:52:20;;;;;;;6.70;6.10;;;16.60;1.00;;;;;;5076913;28;20218;-44
2023/06/24 03:54:46;;;;;;;6.60;6.10;;;16.60;1.00;;;;;;5076824;28;20486;-43
2023/06/24 03:57:12;;;;;;;7.53;6.20;;;16.70;1.00;;;;;;5096332;28;20196;-43
2023/06/24 03:59:38;;;;;;;6.80;6.20;;;16.80;99.90;;;;;;5095753;28;20501;-40
2023/06/24 04:02:07;;;;;;;7.40;6.80;;;16.90;99.90;;;;;;5078120;28;20549;-42
2023/06/24 04:04:36;;;;;;;6.93;6.30;;;17.00;99.90;;;;;;5095305;28;20168;-41
2023/06/24 04:07:03;;;;;;;7.40;6.67;;;17.10;19.90;;;;;;5094348;28;20839;-42
2023/06/24 04:09:29;;;;;;;7.73;7.10;;;17.20;59.40;;;;;;5075824;28;20445;-43
2023/06/24 04:11:55;;;;;;;6.30;5.70;;;17.20;9.60;;;;;;5093085;28;20449;-41
2023/06/24 04:14:20;;;;;;;6.50;5.90;;;17.30;1.00;;;;;;5094558;28;20434;-42
2023/06/24 04:16:46;;;;;;;7.83;7.13;;;17.40;1.00;;;;;;5095106;28;20172;-43
2023/06/24 04:19:12;;;;;;;5.60;5.10;;;17.50;1.00;;;;;;5076064;28;20184;-41
2023/06/24 04:21:37;;;;;;;7.63;6.43;;;17.50;1.00;;;;;;5094203;28;20240;-41
2023/06/24 04:24:03;;;;;;;7.30;6.70;;;17.60;1.00;;;;;;5095833;28;20261;-39
2023/06/24 04:26:30;;;;;;;8.10;7.30;;;17.70;1.00;;;;;;5097343;28;20176;-43
2023/06/24 04:28:55;;;;;;;7.90;7.20;;;17.70;99.90;;;;;;5094920;28;20402;-44
2023/06/24 04:31:21;;;;;;;7.30;6.67;;;17.80;99.90;;;;;;5095180;28;20517;-41
2023/06/24 04:33:46;;;;;;;7.97;7.20;;;17.80;99.90;;;;;;5095205;28;20221;-40
2023/06/24 04:36:12;;;;;;;7.73;7.10;;;17.90;99.90;;;;;;5094749;28;20214;-40
2023/06/24 04:38:38;;;;;;;7.77;7.07;;;17.90;99.90;;;;;;5095324;28;20195;-44
2023/06/24 04:41:03;;;;;;;7.43;6.80;;;18.00;99.90;;;;;;5094575;28;20617;-42
2023/06/24 04:43:29;;;;;;;8.87;7.53;;;18.10;99.90;;;;;;5095592;28;20168;-40
2023/06/24 04:45:55;;;;;;;8.73;7.97;;;18.20;48.50;;;;;;5096207;28;20179;-42
2023/06/24 04:48:23;;;;;;;8.63;7.83;;;18.20;89.80;;;;;;5096108;28;20401;-41
2023/06/24 04:50:49;;;;;;;8.83;8.13;;;18.20;6.10;;;;;;5094302;28;20181;-41
2023/06/24 04:53:14;;;;;;;7.83;7.13;;;18.10;32.40;;;;;;5094617;28;20422;-41
2023/06/24 04:55:40;;;;;;;8.00;7.20;;;18.00;43.50;;;;;;5095046;28;20224;-42
2023/06/24 04:58:06;;;;;;;7.40;6.80;;;17.90;99.90;;;;;;5095254;28;20181;-43
2023/06/24 05:00:31;;;;;;;8.67;7.87;;;17.90;99.90;;;;;;5076721;28;20220;-41
2023/06/24 05:02:57;;;;;;;7.70;7.00;;;18.00;99.90;;;;;;5095125;28;20511;-41
2023/06/24 05:05:23;;;;;;;8.47;7.67;;;18.10;99.90;;;;;;5077684;28;20300;-43
2023/06/24 05:07:48;;;;;;;8.13;7.33;;;18.20;99.90;;;;;;5093812;28;20541;-41
2023/06/24 05:10:14;;;;;;;8.30;7.60;;;18.30;2.80;;;;;;5075908;28;20234;-43
2023/06/24 05:12:40;;;;;;;9.00;8.20;;;18.30;1.00;;;;;;5076607;28;20184;-43
2023/06/24 05:15:08;;;;;;;11.40;8.47;;;18.20;1.00;;;;;;5094835;28;20273;-42
2023/06/24 05:17:33;;;;;;;7.90;7.20;;;18.30;1.00;;;;;;5093693;28;20200;-43
2023/06/24 05:20:00;;;;;;;7.93;7.13;;;18.20;1.00;;;;;;5093004;28;20414;-43
2023/06/24 05:22:26;;;;;;;8.80;7.90;;;18.20;1.00;;;;;;5095157;28;20216;-42
2023/06/24 05:24:51;;;;;;;8.67;7.87;;;18.20;1.00;;;;;;5094796;28;20521;-42
2023/06/24 05:27:17;;;;;;;7.23;6.60;;;18.20;1.00;;;;;;5095011;28;20178;-42
2023/06/24 05:29:43;;;;;;;7.80;7.10;;;18.20;6.70;;;;;;5094142;28;20177;-42
2023/06/24 05:32:09;;;;;;;7.97;7.27;;;18.30;28.70;;;;;;5095511;28;20274;-42
2023/06/24 05:34:35;;;;;;;7.17;6.47;;;18.40;1.00;;;;;;5064170;28;20570;-45
2023/06/24 05:37:01;;;;;;;8.80;8.00;;;18.50;1.00;;;;;;5080416;28;20238;-43
2023/06/24 05:39:27;;;;;;;7.07;6.47;;;18.70;1.00;;;;;;5099893;28;20746;-41
2023/06/24 05:41:52;;;;;;;7.13;6.43;;;18.80;1.00;;;;;;5080270;28;20534;-40
2023/06/24 05:44:18;;;;;;;7.77;6.97;;;19.00;1.00;;;;;;5095053;28;20177;-43
2023/06/24 05:46:47;;;;;;;9.37;8.10;;;19.20;1.00;;;;;;5095119;28;20164;-40
2023/06/24 05:49:12;;;;;;;9.00;8.10;;;19.20;1.00;;;;;;5076732;28;20177;-41
2023/06/24 05:51:38;;;;;;;8.10;7.40;;;19.30;99.90;;;;;;5094958;28;20736;-40
2023/06/24 05:54:04;;;;;;;8.90;8.00;;;19.20;99.90;;;;;;5093979;28;20741;-41
2023/06/24 05:56:29;;;;;;;7.90;7.20;;;19.20;99.90;;;;;;5094294;28;20189;-40
2023/06/24 05:58:55;;;;;;;8.17;7.43;;;19.30;99.90;;;;;;5095055;28;20173;-41
2023/06/24 06:01:21;;;;;;;8.00;7.23;;;19.40;99.90;;;;;;5093347;28;20208;-40
2023/06/24 06:03:46;;;;;;;7.80;7.10;;;19.40;99.90;;;;;;5075013;28;20203;-40
2023/06/24 06:06:12;;;;;;;7.00;6.10;;;19.30;99.90;;;;;;5092485;28;20183;-41
2023/06/24 06:08:38;;;;;;;8.10;7.30;;;19.20;99.90;;;;;;5096033;28;20191;-41
2023/06/24 06:11:03;;;;;;;6.73;6.13;;;19.30;99.90;;;;;;5098386;28;20423;-41
2023/06/24 06:13:30;;;;;;;9.40;6.40;;;19.40;99.90;;;;;;5079407;28;20244;-41
2023/06/24 06:15:56;;;;;;;6.60;6.00;;;19.30;99.90;;;;;;5078827;28;20558;-40
2023/06/24 06:18:22;;;;;;;7.63;6.93;;;19.40;99.90;;;;;;5096956;28;20434;-39
2023/06/24 06:20:47;;;;;;;7.00;6.30;;;19.50;99.90;;;;;;5097884;28;20589;-41
2023/06/24 06:23:13;;;;;;;7.33;6.53;;;19.70;99.90;;;;;;5078662;28;20644;-40
2023/06/24 06:25:39;;;;;;;6.60;6.00;;;19.90;99.90;;;;;;5096217;28;20499;-40
2023/06/24 06:28:04;;;;;;;6.33;5.70;;;20.10;99.90;;;;;;5095274;28;20237;-40
2023/06/24 06:30:30;;;;;;;5.90;5.40;;;20.20;72.60;;;;;;5096019;28;20275;-40
2023/06/24 06:32:56;;;;;;;6.73;6.13;;;20.30;34.20;;;;;;5095164;28;20513;-41
2023/06/24 06:35:21;;;;;;;5.63;5.20;;;20.50;17.70;;;;;;5101853;28;20183;-40
2023/06/24 06:37:52;;;;;;;6.70;6.10;;;20.60;1.00;;;;;;5080991;28;20176;-43
2023/06/24 06:40:21;;;;;;;7.13;6.53;;;20.70;1.00;;;;;;5105420;28;20187;-42
2023/06/24 06:42:47;;;;;;;6.67;5.97;;;20.70;1.00;;;;;;5097852;28;20433;-41
2023/06/24 06:45:12;;;;;;;6.80;6.20;;;20.70;1.00;;;;;;5109330;28;20434;-41
2023/06/24 06:47:38;;;;;;;5.73;5.13;;;20.80;1.00;;;;;;5078700;28;20431;-42
2023/06/24 06:50:04;;;;;;;6.43;5.83;;;20.90;1.00;;;;;;5096954;28;20430;-42
2023/06/24 06:52:30;;;;;;;5.57;5.03;;;20.70;1.00;;;;;;5097076;28;20478;-42
2023/06/24 06:54:56;;;;;;;6.67;6.07;;;20.70;1.00;;;;;;5096643;28;20478;-43
2023/06/24 06:57:22;;;;;;;6.57;5.97;;;20.90;1.00;;;;;;5097830;28;20164;-40
2023/06/24 06:59:49;;;;;;;6.23;5.47;;;21.20;1.00;;;;;;5080684;28;20571;-42
2023/06/24 07:02:15;;;;;;;6.20;5.60;;;21.40;1.00;;;;;;5114360;28;20304;-41
2023/06/24 07:04:40;;;;;;;7.50;6.80;;;21.60;1.00;;;;;;5117866;28;20455;-42
2023/06/24 07:07:06;;;;;;;6.90;6.30;;;21.80;1.00;;;;;;5099310;28;20183;-41
2023/06/24 07:09:32;;;;;;;7.37;5.73;;;21.70;1.00;;;;;;5118028;28;20249;-42
2023/06/24 07:11:57;;;;;;;6.47;5.87;;;21.70;1.00;;;;;;5097587;28;20567;-40
2023/06/24 07:14:24;;;;;;;6.43;5.83;;;22.10;1.00;;;;;;5097537;28;20181;-43
2023/06/24 07:16:50;;;;;;;6.23;5.63;;;22.20;1.00;;;;;;5091120;28;20429;-41
2023/06/24 07:19:16;;;;;;;7.57;5.67;;;22.20;1.00;;;;;;5106976;28;20535;-41
2023/06/24 07:21:42;;;;;;;6.93;6.33;;;22.20;1.00;;;;;;5075659;28;20556;-41
2023/06/24 07:24:07;;;;;;;5.97;5.47;;;22.20;1.00;;;;;;5106782;28;20461;-41
2023/06/24 07:26:33;;;;;;;6.27;5.67;;;22.30;1.00;;;;;;5093443;28;20187;-41
2023/06/24 07:28:59;;;;;;;6.80;6.13;;;22.30;1.00;;;;;;5094062;28;20606;-41
2023/06/24 07:31:25;;;;;;;6.03;5.53;;;22.40;1.00;;;;;;5076203;28;20161;-40
2023/06/24 07:33:51;;;;;;;5.60;5.10;;;22.60;1.00;;;;;;5103629;28;21008;-42
2023/06/24 07:36:18;;;;;;;5.77;5.27;;;22.90;1.00;;;;;;5094108;28;20203;-43
2023/06/24 07:38:44;;;;;;;5.57;5.07;;;23.20;1.00;;;;;;5095039;28;20578;-41
2023/06/24 07:41:10;;;;;;;6.20;5.70;;;23.50;1.00;;;;;;5093865;28;20910;-40
2023/06/24 07:43:36;;;;;;;6.20;5.60;;;23.70;1.00;;;;;;5093567;28;20168;-41
2023/06/24 07:46:02;;;;;;;6.00;5.43;;;23.70;1.00;;;;;;5093320;28;20181;-42
2023/06/24 07:48:28;;;;;;;5.37;4.90;;;23.90;1.00;;;;;;5107808;28;20555;-43
2023/06/24 07:50:54;;;;;;;5.70;5.20;;;24.00;1.00;;;;;;5115481;28;20533;-41
2023/06/24 07:53:19;;;;;;;5.50;5.00;;;24.10;1.00;;;;;;5115567;28;20211;-40
2023/06/24 07:55:45;;;;;;;6.07;5.57;;;24.30;1.00;;;;;;5115565;28;20216;-40
2023/06/24 07:58:11;;;;;;;5.90;4.80;;;24.30;1.00;;;;;;5114770;28;20191;-42
2023/06/24 08:00:36;;;;;;;6.03;5.53;;;24.60;1.00;;;;;;5115047;28;20320;-41
2023/06/24 08:03:04;;;;;;;5.40;4.90;;;24.80;1.00;;;;;;5114645;28;20426;-43
2023/06/24 08:05:29;;;;;;;6.10;5.50;;;24.70;1.00;;;;;;5116264;28;20179;-44
2023/06/24 08:07:55;;;;;;;6.20;5.60;;;25.00;1.00;;;;;;5114860;28;20425;-41
2023/06/24 08:10:20;;;;;;;6.03;5.53;;;25.20;1.00;;;;;;5096994;28;20271;-43
2023/06/24 08:12:46;;;;;;;5.57;5.13;;;25.60;1.00;;;;;;5115697;28;20196;-41
2023/06/24 08:15:13;;;;;;;5.93;5.43;;;25.50;1.00;;;;;;5114648;28;20465;-41
2023/06/24 08:17:38;;;;;;;5.20;4.73;;;25.40;1.00;;;;;;5114686;28;20236;-41
2023/06/24 08:20:04;;;;;;;5.93;4.90;;;25.30;1.00;;;;;;5113916;28;20931;-41
2023/06/24 08:22:30;;;;;;;6.70;5.47;;;25.60;1.00;;;;;;5114975;28;20302;-41
2023/06/24 08:24:56;;;;;;;5.00;4.60;;;26.10;1.00;;;;;;5097954;28;20429;-43
2023/06/24 08:27:22;;;;;;;6.40;5.53;;;26.50;1.00;;;;;;5116394;28;20179;-41
2023/06/24 08:29:48;;;;;;;5.93;5.43;;;26.60;1.00;;;;;;5116715;28;20410;-44
2023/06/24 08:32:13;;;;;;;5.70;5.10;;;26.30;1.00;;;;;;5114063;28;20448;-44
2023/06/24 08:34:39;;;;;;;5.20;4.73;;;25.80;1.00;;;;;;5116527;28;20175;-43
2023/06/24 08:37:05;;;;;;;5.93;5.33;;;25.90;1.00;;;;;;5097073;28;20215;-45
2023/06/24 08:39:30;;;;;;;5.27;4.77;;;26.00;1.00;;;;;;5115666;28;20249;-43
2023/06/24 08:41:56;;;;;;;5.10;4.63;;;26.10;1.00;;;;;;5114266;28;20210;-44
2023/06/24 08:44:21;;;;;;;4.67;4.27;;;26.20;1.00;;;;;;5112395;28;20262;-46
2023/06/24 08:46:48;;;;;;;4.90;4.50;;;26.30;1.00;;;;;;5113082;28;20445;-46
2023/06/24 08:49:22;;;;;;;5.60;5.10;;;26.40;1.00;;;;;;5094503;28;20639;-43
2023/06/24 08:52:01;;;;;;;4.90;4.50;;;26.60;1.00;;;;;;5112440;28;20508;-44
2023/06/24 08:54:26;;;;;;;4.90;4.50;;;26.70;1.00;;;;;;5093851;28;20468;-44
2023/06/24 08:56:53;;;;;;;8.70;4.53;;;26.70;1.00;;;;;;5112161;28;20421;-43
2023/06/24 08:59:20;;;;;;;5.70;4.50;;;26.80;1.00;;;;;;5112531;28;20164;-45
2023/06/24 09:01:50;;;;;;;4.67;4.27;;;27.40;1.00;;;;;;5095332;28;20473;-45
2023/06/24 09:04:15;;;;;;;5.47;4.97;;;28.00;1.00;;;;;;5113485;28;20425;-44
2023/06/24 09:06:41;;;;;;;6.20;5.60;;;27.90;1.00;;;;;;5113593;28;20447;-45
2023/06/24 09:09:23;;;;;;;6.50;5.63;;;27.40;1.00;;;;;;5114890;28;20256;-44
2023/06/24 09:11:53;;;;;;;4.80;4.40;;;27.30;1.00;;;;;;5080974;28;20175;-45
2023/06/24 09:14:19;;;;;;;5.63;5.23;;;27.60;1.00;;;;;;5115841;28;20807;-46
2023/06/24 09:17:11;;;;;;;4.73;4.33;;;28.00;1.00;;;;;;5114098;28;20494;-44
2023/06/24 09:19:36;;;;;;;5.13;4.47;;;28.40;1.00;;;;;;5108709;28;20327;-46
2023/06/24 09:22:03;;;;;;;5.00;4.60;;;28.70;1.00;;;;;;5113893;28;20894;-44
2023/06/24 09:24:37;;;;;;;5.47;4.97;;;28.60;1.00;;;;;;5097311;28;20240;-46
2023/06/24 09:27:03;;;;;;;5.40;4.60;;;28.60;1.00;;;;;;5080446;28;20425;-43
2023/06/24 09:29:35;;;;;;;4.70;4.30;;;28.90;1.00;;;;;;5079905;28;20516;-44
2023/06/24 09:32:04;;;;;;;5.53;5.03;;;29.40;1.00;;;;;;5080302;28;20439;-47
2023/06/24 09:34:31;;;;;;;5.30;4.80;;;29.70;1.00;;;;;;5116866;28;20432;-44
2023/06/24 09:36:58;;;;;;;5.03;4.53;;;29.80;1.00;;;;;;5096519;28;20467;-45
2023/06/24 09:39:30;;;;;;;4.97;4.57;;;29.60;1.00;;;;;;5115734;28;20434;-44
2023/06/24 09:41:56;;;;;;;5.20;4.53;;;29.40;1.00;;;;;;5114016;28;20484;-42
2023/06/24 09:44:24;;;;;;;4.27;3.97;;;28.80;1.00;;;;;;5117880;28;20425;-45
2023/06/24 09:46:49;;;;;;;4.97;4.57;;;28.90;1.00;;;;;;5117724;28;20445;-44
2023/06/24 09:49:15;;;;;;;6.17;5.60;;;29.20;1.00;;;;;;5117623;28;20421;-45
2023/06/24 09:51:46;;;;;;;5.37;4.93;;;29.60;1.00;;;;;;5100164;28;20569;-43
2023/06/24 09:54:13;;;;;;;5.30;4.80;;;30.10;1.00;;;;;;5116546;28;20599;-42
2023/06/24 09:56:49;;;;;;;6.67;4.67;;;30.80;1.00;;;;;;5108663;28;20505;-43
2023/06/24 09:59:15;;;;;;;5.53;5.03;;;31.00;1.00;;;;;;5096798;28;20871;-44
2023/06/24 10:01:44;;;;;;;5.20;4.40;;;30.70;1.00;;;;;;5078666;28;20897;-43
2023/06/24 10:04:13;;;;;;;4.90;4.50;;;30.50;1.00;;;;;;5096305;28;20411;-46
2023/06/24 10:06:39;;;;;;;5.10;4.60;;;30.10;1.00;;;;;;5061437;28;20488;-43
2023/06/24 10:09:04;;;;;;;5.10;4.70;;;30.10;1.00;;;;;;5096562;28;20596;-43
2023/06/24 10:11:31;;;;;;;4.27;3.87;;;30.50;1.00;;;;;;5097713;28;20594;-44
2023/06/24 10:13:57;;;;;;;6.23;4.50;;;31.00;1.00;;;;;;5078590;28;20176;-44
2023/06/24 10:16:25;;;;;;;4.63;4.23;;;31.70;1.00;;;;;;5106436;28;20495;-43
2023/06/24 10:18:51;;;;;;;5.47;4.43;;;31.80;1.00;;;;;;5106543;28;20410;-43
2023/06/24 10:21:16;;;;;;;4.23;3.87;;;31.70;1.00;;;;;;5097790;28;20565;-44
2023/06/24 10:23:49;;;;;;;4.50;4.10;;;31.40;1.00;;;;;;5095893;28;20524;-44
2023/06/24 10:26:28;;;;;;;5.43;4.93;;;30.70;1.00;;;;;;5097177;28;20173;-45
2023/06/24 10:29:06;;;;;;;4.30;3.90;;;30.70;1.00;;;;;;5076843;28;20528;-46
2023/06/24 10:31:53;;;;;;;4.90;4.50;;;31.10;1.00;;;;;;5076485;28;20434;-48
2023/06/24 10:34:22;;;;;;;5.27;4.87;;;31.60;1.00;;;;;;5094603;28;20411;-46
2023/06/24 10:37:00;;;;;;;4.70;4.30;;;32.10;1.00;;;;;;5077080;28;20430;-43
2023/06/24 10:39:35;;;;;;;5.20;4.80;;;32.10;1.00;;;;;;5078620;28;20421;-46
2023/06/24 10:42:24;;;;;;;5.53;4.33;;;32.30;1.00;;;;;;5095330;28;20470;-45
2023/06/24 10:44:50;;;;;;;4.80;4.40;;;32.50;1.00;;;;;;5078877;28;20415;-44
2023/06/24 10:47:16;;;;;;;4.70;4.30;;;32.80;1.00;;;;;;5097897;28;20787;-43
2023/06/24 10:49:42;;;;;;;4.90;4.50;;;32.70;1.00;;;;;;5096886;28;20437;-43
2023/06/24 10:52:11;;;;;;;5.10;4.70;;;32.80;1.00;;;;;;5099171;28;20488;-46
2023/06/24 10:54:41;;;;;;;4.20;3.80;;;32.80;1.00;;;;;;5078649;28;20228;-43
2023/06/24 10:57:08;;;;;;;4.33;4.03;;;33.30;1.00;;;;;;5096538;28;20461;-42
2023/06/24 10:59:44;;;;;;;4.80;4.40;;;33.80;1.00;;;;;;5097555;28;20803;-42
2023/06/24 11:02:13;;;;;;;4.87;4.37;;;34.20;1.00;;;;;;5062447;28;20484;-46
2023/06/24 11:04:49;;;;;;;4.83;4.43;;;33.80;1.00;;;;;;5096131;28;20397;-43
2023/06/24 11:07:17;;;;;;;4.70;4.30;;;33.10;1.00;;;;;;5095299;28;20463;-43
2023/06/24 11:09:47;;;;;;;4.80;4.40;;;32.40;1.00;;;;;;5095372;28;20385;-42
2023/06/24 11:12:13;;;;;;;4.90;4.50;;;31.50;1.00;;;;;;5094640;28;20841;-44
2023/06/24 11:14:39;;;;;;;5.30;4.87;;;31.00;1.00;;;;;;5096231;28;20408;-43
2023/06/24 11:17:04;;;;;;;4.27;3.97;;;30.70;1.00;;;;;;5078533;28;20245;-44
2023/06/24 11:19:35;;;;;;;4.77;4.37;;;30.80;1.00;;;;;;5095494;28;20430;-44
2023/06/24 11:22:02;;;;;;;5.03;4.53;;;30.70;1.00;;;;;;5097699;28;20235;-44
2023/06/24 11:24:28;;;;;;;4.40;4.00;;;31.20;1.00;;;;;;5077377;28;20397;-42
2023/06/24 11:26:53;;;;;;;4.73;4.30;;;31.80;1.00;;;;;;5077437;28;20827;-44
2023/06/24 11:29:19;;;;;;;4.70;4.30;;;31.60;1.00;;;;;;5095360;28;20412;-44
2023/06/24 11:31:45;;;;;;;5.20;4.80;;;31.30;1.00;;;;;;5100934;27;20310;-42
2023/06/24 11:34:11;;;;;;;5.40;4.90;;;30.90;1.00;;;;;;5116515;27;20239;-43
2023/06/24 11:36:36;;;;;;;5.00;4.60;;;30.40;1.00;;;;;;5135361;27;20477;-42
2023/06/24 11:39:03;;;;;;;6.80;4.50;;;30.70;1.00;;;;;;5118231;27;20183;-47
2023/06/24 11:41:28;;;;;;;4.90;4.40;;;31.50;1.00;;;;;;5116826;27;20468;-46
2023/06/24 11:43:54;;;;;;;5.83;4.27;;;32.30;1.00;;;;;;5136799;27;20538;-43
2023/06/24 11:46:27;;;;;;;4.60;4.20;;;32.90;1.00;;;;;;5117434;27;20341;-44
2023/06/24 11:49:12;;;;;;;4.63;4.23;;;33.20;1.00;;;;;;5117120;27;20536;-46
2023/06/24 11:51:48;;;;;;;4.30;3.87;;;33.50;1.00;;;;;;5135909;27;20415;-42
2023/06/24 11:54:15;;;;;;;5.17;4.77;;;33.70;1.00;;;;;;5136013;27;20399;-43
2023/06/24 11:56:42;;;;;;;4.80;4.40;;;33.00;1.00;;;;;;5134208;27;20863;-43
2023/06/24 11:59:17;;;;;;;4.10;3.80;;;32.70;1.00;;;;;;5133452;27;20399;-45
2023/06/24 12:01:43;;;;;;;4.17;3.87;;;33.10;1.00;;;;;;5132172;27;20460;-43
2023/06/24 12:04:13;;;;;;;4.57;4.17;;;33.30;1.00;;;;;;5133593;27;20453;-44
2023/06/24 12:06:40;;;;;;;5.10;4.70;;;33.70;1.00;;;;;;5116683;27;20517;-42
2023/06/24 12:09:07;;;;;;;4.50;4.00;;;34.10;1.00;;;;;;5133784;27;20409;-47
2023/06/24 12:11:32;;;;;;;4.83;4.33;;;34.80;1.00;;;;;;5135856;27;20690;-45
2023/06/24 12:13:58;;;;;;;4.20;3.77;;;34.80;1.00;;;;;;5136420;27;20395;-43
2023/06/24 12:16:24;;;;;;;5.20;4.70;;;34.20;1.00;;;;;;5133868;27;20171;-44
2023/06/24 12:18:50;;;;;;;4.47;4.17;;;34.00;1.00;;;;;;5135199;27;20933;-43
2023/06/24 12:21:16;;;;;;;3.87;3.57;;;34.30;1.00;;;;;;5112247;28;20493;-44
2023/06/24 12:23:41;;;;;;;5.37;4.10;;;34.60;1.00;;;;;;5116407;28;20180;-43
2023/06/24 12:26:07;;;;;;;4.37;4.03;;;34.70;1.00;;;;;;5103392;28;20589;-44
2023/06/24 12:28:34;;;;;;;4.93;4.53;;;34.90;1.00;;;;;;5058546;28;20181;-44
2023/06/24 12:31:00;;;;;;;4.50;4.20;;;35.10;1.00;;;;;;5093439;28;20625;-47
2023/06/24 12:33:25;;;;;;;4.60;4.20;;;35.50;1.00;;;;;;5092120;28;20502;-43
2023/06/24 12:35:51;;;;;;;4.80;4.30;;;35.80;1.00;;;;;;5093613;28;20631;-44
2023/06/24 12:38:16;;;;;;;4.93;4.53;;;35.40;1.00;;;;;;5093070;28;20297;-45
2023/06/24 12:40:43;;;;;;;5.37;4.50;;;34.50;1.00;;;;;;5094052;28;20192;-44
2023/06/24 12:43:09;;;;;;;5.40;4.90;;;34.60;1.00;;;;;;5094431;28;20179;-44
2023/06/24 12:45:34;;;;;;;5.07;4.57;;;34.90;1.00;;;;;;5093545;28;20426;-43
2023/06/24 12:48:00;;;;;;;4.53;4.17;;;35.30;1.00;;;;;;5093485;28;20466;-43
2023/06/24 12:50:26;;;;;;;4.97;4.57;;;35.80;1.00;;;;;;5092480;28;20613;-41
2023/06/24 12:52:51;;;;;;;5.00;4.60;;;35.80;1.00;;;;;;5094956;28;20185;-47
2023/06/24 12:55:17;;;;;;;4.70;4.30;;;35.30;1.00;;;;;;5094531;28;20242;-43
2023/06/24 12:57:42;;;;;;;5.83;4.27;;;34.60;1.00;;;;;;5095566;28;20519;-44